Time;durP1;ratioP1;P1;durP2;ratioP2;P2;SDS_P1;SDS_P2;PMS_P1;PMS_P2;Temp;Humidity;BMP_temperature;BMP_pressure;BME280_temperature;BME280_humidity;BME280_pressure;Samples;Min_cycle;Max_cycle;Signal;HPM_P1;HPM_P2
2021/05/15 00:00:16;;;;;;;37.13;22.30;;;10.40;99.90;;;;;;4441956;28;657399;-66
2021/05/15 00:03:05;;;;;;;29.87;20.60;;;10.50;99.90;;;;;;4427759;28;656619;-66
2021/05/15 00:05:52;;;;;;;35.03;21.77;;;10.40;99.90;;;;;;4451358;28;655900;-66
2021/05/15 00:08:39;;;;;;;34.20;20.40;;;10.40;99.90;;;;;;4417954;28;658028;-66
2021/05/15 00:11:26;;;;;;;35.33;21.88;;;10.40;99.90;;;;;;4446373;28;656975;-66
2021/05/15 00:14:13;;;;;;;33.25;20.15;;;10.40;99.90;;;;;;4429928;28;656480;-67
2021/05/15 00:17:01;;;;;;;34.57;20.50;;;10.30;99.90;;;;;;4449350;28;658470;-67
2021/05/15 00:19:49;;;;;;;31.40;20.10;;;10.30;99.90;;;;;;4430255;28;656454;-66
2021/05/15 00:22:37;;;;;;;34.37;20.77;;;10.40;99.90;;;;;;4438673;28;656710;-67
2021/05/15 00:25:24;;;;;;;32.33;20.03;;;10.30;99.90;;;;;;4422069;28;657146;-67
2021/05/15 00:28:11;;;;;;;34.50;20.63;;;10.30;99.90;;;;;;4446482;28;656727;-67
2021/05/15 00:30:58;;;;;;;35.03;21.47;;;10.30;99.90;;;;;;4429439;28;656564;-66
2021/05/15 00:33:45;;;;;;;36.57;21.67;;;10.30;99.90;;;;;;4446591;28;657271;-67
2021/05/15 00:36:33;;;;;;;33.03;21.85;;;10.30;99.90;;;;;;4428004;28;656717;-68
2021/05/15 00:39:20;;;;;;;39.20;22.50;;;10.30;99.90;;;;;;4448251;28;657846;-66
2021/05/15 00:42:08;;;;;;;30.23;18.47;;;10.30;99.90;;;;;;4428690;28;656509;-68
2021/05/15 00:44:55;;;;;;;39.83;23.23;;;10.30;99.90;;;;;;4445611;28;657381;-67
2021/05/15 00:47:42;;;;;;;38.40;21.63;;;10.20;99.90;;;;;;4443974;28;656536;-68
2021/05/15 00:50:30;;;;;;;35.93;22.50;;;10.20;99.90;;;;;;4452885;28;658014;-67
2021/05/15 00:53:19;;;;;;;38.43;21.90;;;10.20;99.90;;;;;;4432865;28;657100;-68
2021/05/15 00:56:06;;;;;;;43.20;24.60;;;10.20;99.90;;;;;;4447366;28;656984;-67
2021/05/15 00:58:53;;;;;;;41.80;23.57;;;10.20;99.90;;;;;;4427736;28;657993;-67
2021/05/15 01:01:40;;;;;;;40.63;23.63;;;10.20;99.90;;;;;;4442100;28;657600;-66
2021/05/15 01:04:28;;;;;;;40.70;21.93;;;10.20;99.90;;;;;;4427758;28;657049;-67
2021/05/15 01:07:15;;;;;;;40.77;23.23;;;10.10;99.90;;;;;;4443972;28;658855;-67
2021/05/15 01:10:04;;;;;;;41.00;22.60;;;10.10;99.90;;;;;;4432816;28;657524;-68
2021/05/15 01:12:53;;;;;;;39.42;22.25;;;10.10;99.90;;;;;;4446814;28;658589;-66
2021/05/15 01:15:40;;;;;;;38.15;23.05;;;10.00;99.90;;;;;;4424298;28;658321;-68
2021/05/15 01:18:28;;;;;;;41.93;23.10;;;10.00;99.90;;;;;;4417811;28;657869;-67
2021/05/15 01:21:16;;;;;;;42.23;22.67;;;9.90;99.90;;;;;;4446632;28;659313;-66
2021/05/15 01:24:03;;;;;;;41.00;21.67;;;9.90;99.90;;;;;;4429190;28;656754;-67
2021/05/15 01:26:50;;;;;;;47.90;22.67;;;9.90;99.90;;;;;;4446516;28;656680;-67
2021/05/15 01:29:38;;;;;;;40.08;22.33;;;9.90;99.90;;;;;;4426970;28;656333;-68
2021/05/15 01:32:25;;;;;;;38.93;22.17;;;9.80;99.90;;;;;;4450491;28;657810;-67
2021/05/15 01:35:13;;;;;;;37.30;21.02;;;9.80;99.90;;;;;;4428098;28;656688;-68
2021/05/15 01:38:01;;;;;;;35.37;21.53;;;9.80;99.90;;;;;;4450789;28;657116;-66
2021/05/15 01:40:48;;;;;;;37.67;21.47;;;9.80;99.90;;;;;;4427680;28;656407;-67
2021/05/15 01:43:35;;;;;;;38.95;20.92;;;9.70;99.90;;;;;;4451156;28;657586;-67
2021/05/15 01:46:23;;;;;;;36.70;22.10;;;9.70;99.90;;;;;;4424073;28;656724;-67
2021/05/15 01:49:10;;;;;;;36.33;20.97;;;9.70;99.90;;;;;;4443718;28;658275;-67
2021/05/15 01:51:57;;;;;;;35.53;21.13;;;9.60;99.90;;;;;;4445966;28;656431;-68
2021/05/15 01:54:45;;;;;;;34.80;20.30;;;9.60;99.90;;;;;;4455317;28;656724;-67
2021/05/15 01:57:32;;;;;;;32.43;19.43;;;9.60;99.90;;;;;;4428764;28;656557;-67
2021/05/15 02:00:21;;;;;;;31.83;19.37;;;9.50;99.90;;;;;;4451101;28;657234;-66
2021/05/15 02:03:08;;;;;;;31.63;20.43;;;9.40;99.90;;;;;;4423418;28;656593;-67
2021/05/15 02:05:55;;;;;;;32.87;18.87;;;9.40;99.90;;;;;;4452726;28;656587;-67
2021/05/15 02:08:45;;;;;;;30.63;18.37;;;9.30;99.90;;;;;;4431228;28;656473;-68
2021/05/15 02:11:34;;;;;;;30.67;17.73;;;9.30;99.90;;;;;;4436062;28;657244;-68
2021/05/15 02:14:22;;;;;;;32.33;18.43;;;9.20;99.90;;;;;;4443498;28;656968;-67
2021/05/15 02:17:09;;;;;;;32.33;18.93;;;9.20;99.90;;;;;;4431862;28;656589;-66
2021/05/15 02:19:56;;;;;;;29.30;18.00;;;9.10;99.90;;;;;;4451119;28;656536;-66
2021/05/15 02:22:43;;;;;;;31.07;18.50;;;9.00;99.90;;;;;;4418627;28;656400;-67
2021/05/15 02:25:30;;;;;;;29.80;17.77;;;9.00;99.90;;;;;;4445917;28;656957;-67
2021/05/15 02:28:18;;;;;;;29.00;15.50;;;8.90;99.90;;;;;;4426625;28;657048;-68
2021/05/15 02:31:05;;;;;;;26.53;16.67;;;8.90;99.90;;;;;;4452622;28;657225;-67
2021/05/15 02:33:52;;;;;;;29.20;16.00;;;8.70;99.90;;;;;;4426774;28;656588;-68
2021/05/15 02:36:39;;;;;;;29.05;17.67;;;8.70;99.90;;;;;;4448858;28;656820;-67
2021/05/15 02:39:26;;;;;;;28.60;17.03;;;8.60;99.90;;;;;;4447108;28;657663;-67
2021/05/15 02:42:13;;;;;;;31.87;17.37;;;8.60;99.90;;;;;;4413260;28;656452;-67
2021/05/15 02:45:01;;;;;;;116.83;17.10;;;8.50;99.90;;;;;;4452676;28;657159;-67
2021/05/15 02:47:48;;;;;;;28.63;17.55;;;8.50;99.90;;;;;;4428604;28;657247;-67
2021/05/15 02:50:35;;;;;;;29.17;17.10;;;8.40;99.90;;;;;;4449659;28;656505;-66
2021/05/15 02:53:22;;;;;;;25.10;16.40;;;8.30;99.90;;;;;;4430274;28;656704;-67
2021/05/15 02:56:09;;;;;;;29.53;17.70;;;8.30;99.90;;;;;;4449113;28;657386;-66
2021/05/15 02:58:56;;;;;;;35.83;17.87;;;8.30;99.90;;;;;;4450250;28;657018;-66
2021/05/15 03:01:44;;;;;;;32.95;18.63;;;8.20;99.90;;;;;;4429121;28;656894;-65
2021/05/15 03:04:31;;;;;;;29.37;17.13;;;8.20;99.90;;;;;;4441982;28;657061;-66
2021/05/15 03:07:18;;;;;;;29.63;17.17;;;8.20;99.90;;;;;;4425225;28;656329;-66
2021/05/15 03:10:06;;;;;;;26.93;15.60;;;8.20;99.90;;;;;;4435817;28;657056;-65
2021/05/15 03:12:54;;;;;;;28.00;17.10;;;8.20;99.90;;;;;;4429343;28;657151;-67
2021/05/15 03:15:41;;;;;;;27.57;16.70;;;8.20;99.90;;;;;;4449418;28;656869;-65
2021/05/15 03:18:29;;;;;;;26.57;17.00;;;8.10;99.90;;;;;;4426519;28;656690;-66
2021/05/15 03:21:15;;;;;;;28.97;16.80;;;8.10;99.90;;;;;;4448956;28;658002;-65
2021/05/15 03:24:03;;;;;;;29.30;17.37;;;8.10;99.90;;;;;;4429404;28;656635;-67
2021/05/15 03:26:50;;;;;;;31.87;17.67;;;8.20;99.90;;;;;;4452539;28;657973;-66
2021/05/15 03:29:37;;;;;;;31.35;18.35;;;8.20;99.90;;;;;;4435205;28;656794;-67
2021/05/15 03:32:24;;;;;;;36.07;19.83;;;8.20;99.90;;;;;;4450065;28;656949;-65
2021/05/15 03:35:13;;;;;;;32.47;18.83;;;8.20;99.90;;;;;;4451704;28;656859;-65
2021/05/15 03:38:00;;;;;;;37.67;18.00;;;8.20;99.90;;;;;;4426722;28;656962;-65
2021/05/15 03:40:47;;;;;;;35.23;20.33;;;8.30;99.90;;;;;;4431225;28;656992;-66
2021/05/15 03:43:34;;;;;;;31.87;19.13;;;8.40;99.90;;;;;;4452919;28;655941;-66
2021/05/15 03:46:21;;;;;;;36.97;19.90;;;8.40;99.90;;;;;;4452905;28;656702;-66
2021/05/15 03:49:08;;;;;;;33.13;18.97;;;8.50;99.90;;;;;;4429279;28;656516;-66
2021/05/15 03:51:56;;;;;;;33.23;19.50;;;8.60;99.90;;;;;;4452784;28;657440;-66
2021/05/15 03:54:43;;;;;;;33.17;18.57;;;8.70;99.90;;;;;;4424877;28;656507;-65
2021/05/15 03:57:30;;;;;;;34.37;20.20;;;8.70;99.90;;;;;;4448821;28;657470;-65
2021/05/15 04:00:18;;;;;;;32.23;18.60;;;8.80;99.90;;;;;;4431869;28;657216;-67
2021/05/15 04:03:05;;;;;;;29.80;19.10;;;8.80;99.90;;;;;;4447898;28;657272;-66
2021/05/15 04:05:53;;;;;;;34.77;19.50;;;8.90;99.90;;;;;;4425447;28;657533;-67
2021/05/15 04:08:41;;;;;;;32.80;19.27;;;9.00;99.90;;;;;;4447955;28;658029;-66
2021/05/15 04:11:34;;;;;;;33.03;18.83;;;9.00;99.90;;;;;;4428307;28;656158;-66
2021/05/15 04:14:30;;;;;;;33.90;19.23;;;9.00;99.90;;;;;;4429595;28;656411;-65
2021/05/15 04:17:21;;;;;;;30.23;18.00;;;9.10;99.90;;;;;;4418773;28;656777;-67
2021/05/15 04:20:10;;;;;;;32.57;19.53;;;9.10;99.90;;;;;;4419411;28;656432;-66
2021/05/15 04:22:57;;;;;;;36.60;21.20;;;9.10;99.90;;;;;;4443278;28;656914;-67
2021/05/15 04:25:45;;;;;;;35.67;20.97;;;9.20;99.90;;;;;;4447419;28;657607;-65
2021/05/15 04:28:32;;;;;;;32.53;19.93;;;9.30;99.90;;;;;;4426580;28;656711;-66
2021/05/15 04:31:19;;;;;;;36.57;21.87;;;9.40;99.90;;;;;;4441954;28;657496;-66
2021/05/15 04:34:06;;;;;;;35.73;20.37;;;9.50;99.90;;;;;;4447163;28;656064;-66
2021/05/15 04:36:53;;;;;;;33.77;19.67;;;9.50;99.90;;;;;;4425106;28;656658;-66
2021/05/15 04:39:40;;;;;;;29.60;18.67;;;9.60;99.90;;;;;;4447171;28;657254;-66
2021/05/15 04:42:28;;;;;;;37.43;20.83;;;9.60;99.90;;;;;;4423280;28;656818;-66
2021/05/15 04:45:15;;;;;;;36.50;19.87;;;9.70;99.90;;;;;;4447897;28;657230;-66
2021/05/15 04:48:02;;;;;;;38.10;20.83;;;9.80;99.90;;;;;;4428417;28;656667;-67
2021/05/15 04:50:49;;;;;;;29.17;18.70;;;9.90;99.90;;;;;;4451402;28;657026;-65
2021/05/15 04:53:36;;;;;;;28.10;16.93;;;10.00;99.90;;;;;;4446038;28;656141;-66
2021/05/15 04:56:23;;;;;;;31.10;17.70;;;10.10;99.90;;;;;;4426912;28;658320;-66
2021/05/15 04:59:11;;;;;;;24.73;15.23;;;10.20;99.90;;;;;;4436795;28;658545;-66
2021/05/15 05:01:58;;;;;;;25.33;15.60;;;10.30;99.90;;;;;;4420345;28;657878;-66
2021/05/15 05:04:45;;;;;;;23.57;14.57;;;10.50;99.90;;;;;;4442673;28;657755;-66
2021/05/15 05:07:32;;;;;;;19.83;13.70;;;10.60;99.90;;;;;;4425103;28;657707;-68
2021/05/15 05:10:19;;;;;;;21.50;13.90;;;10.80;99.90;;;;;;4450113;28;657036;-66
2021/05/15 05:13:06;;;;;;;24.10;14.20;;;10.90;99.90;;;;;;4445346;28;657859;-66
2021/05/15 05:15:54;;;;;;;23.90;13.93;;;10.90;99.90;;;;;;4427429;28;657543;-66
2021/05/15 05:18:41;;;;;;;25.17;14.53;;;11.00;99.90;;;;;;4446070;28;657683;-66
2021/05/15 05:21:28;;;;;;;22.90;12.70;;;11.10;99.90;;;;;;4426540;28;657382;-66
2021/05/15 05:24:15;;;;;;;17.23;11.53;;;11.20;99.90;;;;;;4444163;28;658183;-66
2021/05/15 05:27:02;;;;;;;18.35;11.23;;;11.20;99.90;;;;;;4427290;28;657904;-67
2021/05/15 05:29:49;;;;;;;18.13;11.20;;;11.20;99.90;;;;;;4443299;28;658026;-66
2021/05/15 05:32:37;;;;;;;16.43;10.60;;;11.40;99.90;;;;;;4439273;28;657538;-66
2021/05/15 05:35:24;;;;;;;18.40;10.93;;;11.40;99.90;;;;;;4426809;28;657362;-66
2021/05/15 05:38:11;;;;;;;15.50;10.53;;;11.60;99.90;;;;;;4444647;28;657164;-65
2021/05/15 05:40:58;;;;;;;17.30;10.60;;;11.70;99.90;;;;;;4420869;28;658065;-65
2021/05/15 05:43:45;;;;;;;18.73;11.50;;;11.70;99.90;;;;;;4447304;28;658437;-66
2021/05/15 05:46:32;;;;;;;16.47;10.70;;;11.70;99.90;;;;;;4432125;28;657548;-67
2021/05/15 05:49:20;;;;;;;19.33;11.83;;;11.70;99.90;;;;;;4441257;28;659558;-66
2021/05/15 05:52:07;;;;;;;20.70;12.13;;;11.80;99.90;;;;;;4427289;28;657813;-66
2021/05/15 05:54:54;;;;;;;17.37;11.23;;;11.90;99.90;;;;;;4445374;28;658725;-66
2021/05/15 05:57:41;;;;;;;14.73;10.40;;;12.00;99.90;;;;;;4445606;28;658027;-66
2021/05/15 06:00:28;;;;;;;18.50;10.37;;;12.20;99.90;;;;;;4423222;28;658018;-66
2021/05/15 06:03:16;;;;;;;16.13;10.67;;;12.30;99.90;;;;;;4440578;28;658597;-65
2021/05/15 06:06:04;;;;;;;15.07;9.70;;;12.40;99.90;;;;;;4425348;28;657738;-66
2021/05/15 06:08:51;;;;;;;13.93;10.07;;;12.50;99.90;;;;;;4445257;28;656806;-66
2021/05/15 06:11:38;;;;;;;15.27;9.77;;;12.60;99.90;;;;;;4421172;28;657881;-66
2021/05/15 06:14:25;;;;;;;16.07;9.63;;;12.60;99.90;;;;;;4434309;28;657738;-66
2021/05/15 06:17:12;;;;;;;13.10;9.00;;;12.70;99.90;;;;;;4427489;28;656852;-67
2021/05/15 06:20:00;;;;;;;14.27;9.05;;;12.80;99.90;;;;;;4450433;28;657146;-65
2021/05/15 06:22:48;;;;;;;12.97;8.30;;;12.90;99.90;;;;;;4434269;28;656658;-67
2021/05/15 06:25:35;;;;;;;11.07;8.67;;;13.00;99.90;;;;;;4443284;28;657159;-66
2021/05/15 06:28:22;;;;;;;12.75;7.70;;;13.20;99.90;;;;;;4431178;28;656629;-67
2021/05/15 06:31:10;;;;;;;10.85;8.35;;;13.30;99.90;;;;;;4449264;28;657150;-65
2021/05/15 06:33:57;;;;;;;13.07;8.43;;;13.30;99.90;;;;;;4429026;28;656690;-67
2021/05/15 06:36:44;;;;;;;10.40;7.47;;;13.20;99.90;;;;;;4451919;28;657242;-66
2021/05/15 06:39:32;;;;;;;12.33;7.23;;;13.50;99.90;;;;;;4445465;28;656807;-66
2021/05/15 06:42:20;;;;;;;9.93;7.10;;;13.60;99.90;;;;;;4426732;28;657180;-66
2021/05/15 06:45:08;;;;;;;9.77;7.10;;;13.70;99.90;;;;;;4451076;28;656066;-66
2021/05/15 06:47:57;;;;;;;10.27;5.53;;;13.60;99.90;;;;;;4451177;28;656105;-66
2021/05/15 06:50:44;;;;;;;8.80;6.93;;;13.70;99.90;;;;;;4427886;28;657734;-66
2021/05/15 06:53:34;;;;;;;8.00;6.30;;;13.70;99.90;;;;;;4454469;28;655841;-67
2021/05/15 06:56:22;;;;;;;11.33;6.60;;;13.70;99.90;;;;;;4427789;28;655683;-65
2021/05/15 06:59:09;;;;;;;9.57;6.40;;;13.90;99.90;;;;;;4426454;28;656803;-66
2021/05/15 07:01:56;;;;;;;8.20;6.43;;;13.90;99.90;;;;;;4450483;28;656142;-65
2021/05/15 07:04:43;;;;;;;11.13;6.87;;;13.90;99.90;;;;;;4428757;28;655759;-66
2021/05/15 07:07:31;;;;;;;10.43;7.07;;;14.20;99.90;;;;;;4453123;28;656937;-66
2021/05/15 07:10:18;;;;;;;9.90;6.43;;;14.40;99.90;;;;;;4430161;28;656682;-66
2021/05/15 07:13:06;;;;;;;10.60;6.70;;;14.70;99.90;;;;;;4450659;28;657213;-65
2021/05/15 07:15:53;;;;;;;8.97;5.80;;;14.80;99.90;;;;;;4430431;28;656567;-66
2021/05/15 07:18:40;;;;;;;9.57;7.03;;;14.90;99.90;;;;;;4449982;28;656276;-65
2021/05/15 07:21:27;;;;;;;8.10;6.13;;;15.20;99.90;;;;;;4431488;28;655919;-67
2021/05/15 07:24:14;;;;;;;12.03;5.73;;;15.30;99.90;;;;;;4454736;28;655599;-66
2021/05/15 07:27:01;;;;;;;8.50;5.97;;;15.40;99.90;;;;;;4449117;28;656505;-66
2021/05/15 07:29:51;;;;;;;7.53;5.80;;;15.60;99.90;;;;;;4427150;28;655601;-65
2021/05/15 07:32:38;;;;;;;10.70;5.70;;;15.60;99.90;;;;;;4430327;28;655692;-65
2021/05/15 07:35:26;;;;;;;9.17;5.67;;;15.30;99.90;;;;;;4449011;28;657927;-67
2021/05/15 07:38:13;;;;;;;8.43;6.87;;;15.50;99.90;;;;;;4430913;28;655533;-66
2021/05/15 07:41:00;;;;;;;7.73;6.37;;;15.80;99.90;;;;;;4450329;28;656547;-66
2021/05/15 07:43:47;;;;;;;14.57;6.83;;;15.90;99.90;;;;;;4446917;28;655772;-67
2021/05/15 07:46:35;;;;;;;8.15;6.30;;;16.40;99.90;;;;;;4452891;28;656620;-66
2021/05/15 07:49:22;;;;;;;6.65;5.30;;;16.50;99.90;;;;;;4431387;28;656407;-67
2021/05/15 07:52:09;;;;;;;7.90;5.87;;;15.90;99.90;;;;;;4454833;28;656025;-66
2021/05/15 07:54:56;;;;;;;9.80;6.17;;;15.70;99.90;;;;;;4449847;28;655728;-66
2021/05/15 07:57:43;;;;;;;8.47;6.10;;;15.60;99.90;;;;;;4426580;28;655647;-66
2021/05/15 08:00:30;;;;;;;10.03;6.23;;;15.80;99.90;;;;;;4449808;28;655741;-66
2021/05/15 08:03:19;;;;;;;7.53;5.60;;;16.20;99.90;;;;;;4429807;28;656560;-66
2021/05/15 08:06:06;;;;;;;9.40;6.23;;;16.50;99.90;;;;;;4449854;28;656186;-66
2021/05/15 08:08:53;;;;;;;8.07;5.77;;;16.20;99.90;;;;;;4430588;28;655421;-66
2021/05/15 08:11:40;;;;;;;7.43;5.20;;;16.30;99.90;;;;;;4453638;28;656700;-66
2021/05/15 08:14:27;;;;;;;7.97;5.47;;;15.90;99.90;;;;;;4445615;28;655762;-67
2021/05/15 08:17:14;;;;;;;8.27;5.60;;;15.70;99.90;;;;;;4453486;28;656199;-66
2021/05/15 08:20:03;;;;;;;8.30;6.23;;;16.00;99.90;;;;;;4448799;28;657318;-66
2021/05/15 08:22:50;;;;;;;9.93;5.97;;;16.40;99.90;;;;;;4426598;28;655873;-67
2021/05/15 08:25:37;;;;;;;6.70;4.77;;;16.70;99.90;;;;;;4431289;28;655664;-68
2021/05/15 08:28:25;;;;;;;6.47;4.33;;;17.20;99.90;;;;;;4449090;28;656357;-66
2021/05/15 08:31:12;;;;;;;5.80;4.60;;;17.20;99.90;;;;;;4430570;28;656165;-67
2021/05/15 08:33:59;;;;;;;5.50;4.60;;;17.10;99.90;;;;;;4453685;28;655378;-66
2021/05/15 08:36:48;;;;;;;6.87;4.70;;;17.50;99.90;;;;;;4448847;28;657042;-67
2021/05/15 08:39:35;;;;;;;8.07;5.10;;;17.70;99.90;;;;;;4430167;28;655927;-66
2021/05/15 08:42:22;;;;;;;7.93;4.95;;;17.90;99.90;;;;;;4431264;28;655944;-68
2021/05/15 08:45:10;;;;;;;7.33;5.20;;;17.90;99.90;;;;;;4454156;28;655596;-66
2021/05/15 08:47:58;;;;;;;8.97;5.03;;;17.80;99.90;;;;;;4430120;28;655513;-67
2021/05/15 08:50:45;;;;;;;6.73;4.87;;;17.50;99.90;;;;;;4448768;28;656669;-66
2021/05/15 08:53:37;;;;;;;8.50;5.17;;;17.00;99.90;;;;;;4449139;28;655445;-66
2021/05/15 08:56:24;;;;;;;7.53;4.80;;;16.70;99.90;;;;;;4429813;28;655764;-67
2021/05/15 08:59:11;;;;;;;8.13;4.33;;;16.40;99.90;;;;;;4447990;28;656517;-66
2021/05/15 09:01:58;;;;;;;8.10;3.70;;;16.80;99.90;;;;;;4429775;28;655910;-66
2021/05/15 09:04:45;;;;;;;6.13;3.57;;;17.50;99.90;;;;;;4452084;28;655498;-66
2021/05/15 09:07:32;;;;;;;5.55;3.83;;;17.60;99.90;;;;;;4433321;28;655600;-67
2021/05/15 09:10:21;;;;;;;6.87;3.93;;;18.00;99.90;;;;;;4449086;28;655299;-65
2021/05/15 09:13:12;;;;;;;4.57;3.70;;;18.40;99.90;;;;;;4413141;28;655708;-65
2021/05/15 09:16:00;;;;;;;6.33;3.63;;;18.80;99.90;;;;;;4410331;28;656555;-66
2021/05/15 09:18:47;;;;;;;6.47;3.80;;;18.90;99.90;;;;;;4414024;28;655405;-68
2021/05/15 09:21:35;;;;;;;6.17;4.00;;;19.30;99.90;;;;;;4435723;28;655295;-66
2021/05/15 09:24:27;;;;;;;5.80;3.50;;;19.30;99.90;;;;;;4431597;28;655213;-66
2021/05/15 09:27:16;;;;;;;4.30;3.60;;;19.10;99.90;;;;;;4386156;28;655730;-67
2021/05/15 09:30:03;;;;;;;4.03;2.63;;;18.90;99.90;;;;;;4412835;28;655561;-66
2021/05/15 09:32:51;;;;;;;5.60;3.50;;;18.80;99.90;;;;;;4432499;28;655609;-66
2021/05/15 09:35:39;;;;;;;10.03;3.53;;;19.00;99.90;;;;;;4411170;28;655325;-66
2021/05/15 09:38:26;;;;;;;4.50;3.50;;;18.90;99.90;;;;;;4431245;28;657544;-66
2021/05/15 09:41:13;;;;;;;7.03;3.60;;;19.20;99.90;;;;;;4413443;28;655370;-67
2021/05/15 09:44:01;;;;;;;5.43;3.60;;;19.20;99.90;;;;;;4436213;28;655845;-67
2021/05/15 09:46:48;;;;;;;9.93;3.90;;;19.10;99.90;;;;;;4412889;28;656041;-66
2021/05/15 09:49:36;;;;;;;4.90;3.20;;;19.60;99.90;;;;;;4431498;28;656926;-67
2021/05/15 09:52:31;;;;;;;4.93;3.17;;;19.30;99.90;;;;;;4412503;28;655850;-66
2021/05/15 09:55:18;;;;;;;4.67;3.13;;;19.00;99.90;;;;;;4380884;28;656615;-67
2021/05/15 09:58:05;;;;;;;2.93;2.57;;;19.50;99.90;;;;;;4433739;28;656305;-66
2021/05/15 10:00:55;;;;;;;3.27;2.67;;;19.90;99.90;;;;;;4412173;28;655548;-67
2021/05/15 10:03:44;;;;;;;4.57;3.00;;;19.70;97.40;;;;;;4416840;28;655557;-68
2021/05/15 10:06:31;;;;;;;6.70;3.47;;;19.70;99.20;;;;;;4431549;28;655505;-66
2021/05/15 10:09:31;;;;;;;5.73;3.00;;;19.40;99.90;;;;;;4412778;28;655457;-67
2021/05/15 10:12:18;;;;;;;3.70;2.40;;;19.80;99.90;;;;;;4383757;28;656388;-66
2021/05/15 10:15:06;;;;;;;2.13;1.90;;;20.60;99.90;;;;;;4434683;28;656133;-67
2021/05/15 10:17:54;;;;;;;5.70;2.87;;;20.90;97.20;;;;;;4411852;28;655536;-67
2021/05/15 10:20:42;;;;;;;5.07;2.77;;;21.40;95.60;;;;;;4434641;28;655764;-67
2021/05/15 10:23:30;;;;;;;5.17;2.60;;;21.60;95.80;;;;;;4415802;28;655915;-66
2021/05/15 10:26:18;;;;;;;5.23;3.13;;;21.70;94.80;;;;;;4415668;28;655500;-67
2021/05/15 10:29:06;;;;;;;5.10;3.30;;;20.90;96.10;;;;;;4438607;28;656108;-66
2021/05/15 10:31:53;;;;;;;4.20;3.10;;;20.30;97.00;;;;;;4415753;28;655313;-67
2021/05/15 10:34:41;;;;;;;7.67;3.10;;;19.80;97.50;;;;;;4435261;28;656736;-67
2021/05/15 10:37:30;;;;;;;5.03;2.97;;;19.00;97.80;;;;;;4415709;28;655559;-66
2021/05/15 10:40:18;;;;;;;2.60;2.40;;;18.70;98.60;;;;;;4416070;28;655860;-68
2021/05/15 10:43:05;;;;;;;5.43;2.60;;;18.40;97.10;;;;;;4433937;28;656763;-66
2021/05/15 10:45:52;;;;;;;3.70;2.27;;;18.20;97.50;;;;;;4415585;28;655493;-67
2021/05/15 10:48:40;;;;;;;3.63;2.00;;;18.60;97.40;;;;;;4434929;28;656904;-66
2021/05/15 10:51:40;;;;;;;2.90;2.03;;;19.70;98.20;;;;;;4433977;28;655974;-66
2021/05/15 10:54:31;;;;;;;3.57;2.10;;;20.50;96.40;;;;;;4431845;28;655295;-68
2021/05/15 10:57:22;;;;;;;5.07;2.50;;;21.30;95.00;;;;;;4415389;28;655686;-67
2021/05/15 11:00:10;;;;;;;3.60;2.40;;;22.10;95.30;;;;;;4415441;28;656277;-67
2021/05/15 11:03:01;;;;;;;4.07;2.40;;;22.00;93.70;;;;;;4432125;28;655748;-68
2021/05/15 11:05:48;;;;;;;4.87;2.30;;;21.50;90.70;;;;;;4415000;28;655862;-66
2021/05/15 11:08:36;;;;;;;3.70;1.87;;;21.50;91.00;;;;;;4438333;28;656631;-66
2021/05/15 11:11:36;;;;;;;2.93;1.90;;;21.60;88.00;;;;;;4425872;28;655625;-66
2021/05/15 11:14:30;;;;;;;9.33;1.90;;;21.60;88.00;;;;;;4404710;28;655906;-66
2021/05/15 11:17:25;;;;;;;3.87;1.53;;;21.50;88.30;;;;;;4410554;28;655494;-68
2021/05/15 11:20:14;;;;;;;3.37;2.37;;;21.70;86.20;;;;;;4416295;28;656160;-67
2021/05/15 11:23:11;;;;;;;4.13;2.33;;;21.90;85.50;;;;;;4450574;28;656486;-66
2021/05/15 11:25:59;;;;;;;3.20;2.17;;;22.20;88.30;;;;;;4404307;28;656257;-66
2021/05/15 11:28:48;;;;;;;4.63;2.30;;;22.40;88.60;;;;;;4450531;28;656100;-66
2021/05/15 11:31:38;;;;;;;2.53;2.13;;;22.90;89.40;;;;;;4427316;28;656196;-65
2021/05/15 11:34:26;;;;;;;3.13;2.03;;;22.90;86.60;;;;;;4430998;28;656605;-65
2021/05/15 11:37:13;;;;;;;4.27;1.90;;;23.00;87.60;;;;;;4430589;28;655590;-66
2021/05/15 11:40:01;;;;;;;6.30;2.13;;;22.80;84.30;;;;;;4454792;28;655974;-66
2021/05/15 11:42:49;;;;;;;2.23;1.67;;;23.10;87.80;;;;;;4431441;28;655717;-66
2021/05/15 11:45:36;;;;;;;3.00;1.53;;;23.30;82.60;;;;;;4450785;28;656335;-65
2021/05/15 11:48:23;;;;;;;2.20;1.60;;;23.20;79.20;;;;;;4431094;28;655820;-66
2021/05/15 11:51:12;;;;;;;3.33;1.90;;;23.50;78.30;;;;;;4450197;28;655804;-66
2021/05/15 11:54:00;;;;;;;5.70;2.03;;;23.20;80.20;;;;;;4431175;28;655549;-66
2021/05/15 11:56:51;;;;;;;2.10;1.83;;;22.70;80.00;;;;;;4448381;28;655104;-67
2021/05/15 11:59:39;;;;;;;5.03;1.73;;;22.70;79.60;;;;;;4430226;28;655605;-66
2021/05/15 12:02:26;;;;;;;2.77;1.73;;;22.60;78.30;;;;;;4449240;28;655374;-65
2021/05/15 12:05:17;;;;;;;4.32;1.52;;;22.50;79.50;;;;;;4427845;28;655781;-66
2021/05/15 12:08:10;;;;;;;2.17;1.50;;;22.10;78.90;;;;;;4430775;28;655997;-65
2021/05/15 12:11:01;;;;;;;1.47;1.37;;;22.30;81.60;;;;;;4448487;28;655872;-67
2021/05/15 12:13:49;;;;;;;2.27;1.60;;;22.70;75.00;;;;;;4430833;28;656188;-65
2021/05/15 12:16:37;;;;;;;2.57;1.70;;;22.60;76.10;;;;;;4449237;28;655766;-66
2021/05/15 12:19:26;;;;;;;2.83;1.80;;;22.60;77.30;;;;;;4426256;28;656515;-65
2021/05/15 12:22:14;;;;;;;1.60;1.47;;;22.60;77.10;;;;;;4430514;28;656116;-65
2021/05/15 12:25:08;;;;;;;1.77;1.40;;;23.00;76.00;;;;;;4449308;28;656112;-66
2021/05/15 12:27:55;;;;;;;2.13;1.20;;;23.00;74.10;;;;;;4426256;28;655801;-65
2021/05/15 12:30:42;;;;;;;2.03;1.40;;;22.90;72.20;;;;;;4430187;28;655437;-67
2021/05/15 12:33:32;;;;;;;1.77;1.57;;;23.20;74.00;;;;;;4452495;28;655242;-66
2021/05/15 12:36:19;;;;;;;2.90;1.70;;;23.60;76.10;;;;;;4427207;28;656390;-65
2021/05/15 12:39:07;;;;;;;1.37;1.20;;;24.30;78.60;;;;;;4449230;28;655915;-65
2021/05/15 12:41:55;;;;;;;2.67;1.73;;;24.70;75.20;;;;;;4426443;28;656194;-65
2021/05/15 12:44:42;;;;;;;5.47;1.70;;;24.50;71.10;;;;;;4449165;28;655252;-65
2021/05/15 12:47:34;;;;;;;1.80;1.40;;;23.90;73.50;;;;;;4429699;28;655858;-66
2021/05/15 12:50:27;;;;;;;4.97;1.50;;;23.70;74.10;;;;;;4425735;28;656075;-65
2021/05/15 12:53:14;;;;;;;3.13;1.50;;;23.40;71.70;;;;;;4425546;28;655802;-66
2021/05/15 12:56:01;;;;;;;3.27;1.77;;;23.60;74.20;;;;;;4448732;28;655694;-66
2021/05/15 12:58:51;;;;;;;4.20;1.70;;;23.60;74.00;;;;;;4429470;28;655986;-67
2021/05/15 13:01:38;;;;;;;1.40;1.30;;;24.00;76.20;;;;;;4429628;28;655925;-66
2021/05/15 13:04:26;;;;;;;2.73;1.60;;;24.60;73.50;;;;;;4449567;28;656223;-66
2021/05/15 13:07:24;;;;;;;2.80;1.20;;;25.10;70.50;;;;;;4430209;28;655356;-66
2021/05/15 13:10:13;;;;;;;3.07;1.77;;;25.00;69.20;;;;;;4425533;28;656098;-65
2021/05/15 13:13:02;;;;;;;2.35;1.40;;;25.00;73.70;;;;;;4425739;28;656444;-65
2021/05/15 13:15:49;;;;;;;1.67;1.30;;;25.10;69.00;;;;;;4429670;28;655860;-66
2021/05/15 13:18:36;;;;;;;2.97;1.50;;;25.30;69.50;;;;;;4448685;28;655127;-65
2021/05/15 13:21:23;;;;;;;2.45;1.30;;;25.70;69.60;;;;;;4429470;28;655636;-66
2021/05/15 13:24:12;;;;;;;2.53;1.27;;;25.70;68.70;;;;;;4448497;28;656363;-65
2021/05/15 13:26:59;;;;;;;1.50;1.25;;;25.20;67.90;;;;;;4429787;28;655807;-66
2021/05/15 13:29:46;;;;;;;3.10;1.30;;;24.70;69.10;;;;;;4448555;28;655438;-66
2021/05/15 13:32:33;;;;;;;3.75;1.40;;;24.10;67.30;;;;;;4427493;28;655764;-66
2021/05/15 13:35:20;;;;;;;3.53;1.70;;;23.40;71.20;;;;;;4451542;28;655555;-65
2021/05/15 13:38:07;;;;;;;1.87;1.53;;;23.00;68.00;;;;;;4433802;28;655786;-67
2021/05/15 13:40:55;;;;;;;2.47;1.20;;;22.70;71.20;;;;;;4452337;28;655044;-65
2021/05/15 13:43:43;;;;;;;2.70;1.40;;;22.80;70.10;;;;;;4429960;28;655907;-67
2021/05/15 13:46:30;;;;;;;2.10;1.43;;;22.70;71.40;;;;;;4452962;28;656892;-65
2021/05/15 13:49:19;;;;;;;1.20;1.10;;;23.10;70.60;;;;;;4434022;28;655467;-67
2021/05/15 13:52:06;;;;;;;2.97;1.20;;;23.60;69.80;;;;;;4452046;28;656031;-65
2021/05/15 13:54:53;;;;;;;1.67;1.30;;;24.10;73.30;;;;;;4433046;28;655893;-66
2021/05/15 13:57:41;;;;;;;1.80;1.40;;;24.60;70.40;;;;;;4456341;28;656446;-66
2021/05/15 14:00:28;;;;;;;1.30;1.20;;;24.60;67.40;;;;;;4428804;28;655574;-66
2021/05/15 14:03:15;;;;;;;1.43;1.30;;;24.50;67.40;;;;;;4451694;28;655699;-66
2021/05/15 14:06:03;;;;;;;2.87;1.30;;;24.60;68.20;;;;;;4432503;28;656076;-66
2021/05/15 14:08:50;;;;;;;3.17;1.10;;;24.90;72.30;;;;;;4452002;28;657438;-66
2021/05/15 14:11:37;;;;;;;1.33;1.00;;;24.70;66.40;;;;;;4445544;28;655332;-67
2021/05/15 14:14:26;;;;;;;2.77;1.37;;;24.80;66.30;;;;;;4451567;28;656800;-66